12°C Temp
9°C Dewpoint
82% Humidity
Temperature
35 KM/H
22 MPH
19 KTS
260°
Due West

Wind Speed
Overcast
Conditions
Pressure 999.92 (hPa) - 29.53 (in)
Visibility 6.2 (mi) - 10.0 (km)

Current Conditions
EKCH
Location 55(km)
Metar :EKCH 270450Z AUTO 26019KT 9999 OVC016/// 12/09 Q1000 NOSIG
Mon 27th May 06:50 am

Airport
  Metar Aviation API Data Provided by https://www.checkwx.com/ PHP scripts by weather34.com ©2019